KDBQ/DBQ METAR and TAF weather

Enter ICAO airport designator
Station Type Date Time Source
KDBQ METAR 2021/07/29 17:53 UTC NOAA

KDBQ 291753Z 36009KT 10SM BKN016 28/22 A2999 RMK AO2 SLP146 T02830222 10283 20217 50006


Station Type Date Time Source
KDBQ Decoded METAR 2021/07/29 17:53 UTC NOAA

DUBUQUE REGIONAL AIRPORT, IA, United States (KDBQ) 42-24N 90-42W 326M
Jul 29, 2021 - 01:53 PM EDT / 2021.07.29 1753 UTC
Wind: from the N (360 degrees) at 10 MPH (9 KT):0
Visibility: 10 mile(s):0
Sky conditions: mostly cloudy
Temperature: 82.9 F (28.3 C)
Dew Point: 72.0 F (22.2 C)
Relative Humidity: 69%
Pressure (altimeter): 29.99 in. Hg (1015 hPa)
Pressure tendency: 0.02 inches (0.6 hPa) higher than three hours ago
ob: KDBQ 291753Z 36009KT 10SM BKN016 28/22 A2999 RMK AO2 SLP146 T02830222 10283 20217 50006
cycle: 18

Station Type Date Time Source
KDBQ TAF 2021/07/29 18:22 UTC NOAA

TAF KDBQ 291720Z 2918/3018 22008KT P6SM BKN018 BKN035
FM300100 02005KT P6SM SCT250

Example: see airport list